sensor_id;sensor_type;location;lat;lon;timestamp;temperature;humidity
8043;DHT22;4064;48.132;11.366;2023-02-16T00:00:26;-2.00;99.90
8043;DHT22;4064;48.132;11.366;2023-02-16T00:02:52;-2.00;99.90
8043;DHT22;4064;48.132;11.366;2023-02-16T00:07:47;-2.00;99.90
8043;DHT22;4064;48.132;11.366;2023-02-16T00:10:12;-2.00;99.90
8043;DHT22;4064;48.132;11.366;2023-02-16T00:12:38;-2.00;99.90
8043;DHT22;4064;48.132;11.366;2023-02-16T00:15:22;-1.90;99.90
8043;DHT22;4064;48.132;11.366;2023-02-16T00:17:48;-1.90;99.90
8043;DHT22;4064;48.132;11.366;2023-02-16T00:20:15;-1.90;99.90
8043;DHT22;4064;48.132;11.366;2023-02-16T00:22:41;-2.00;99.90
8043;DHT22;4064;48.132;11.366;2023-02-16T00:25:07;-2.00;99.90
8043;DHT22;4064;48.132;11.366;2023-02-16T00:27:33;-1.90;99.90
8043;DHT22;4064;48.132;11.366;2023-02-16T00:29:59;-1.90;99.90
8043;DHT22;4064;48.132;11.366;2023-02-16T00:32:25;-1.90;99.90
8043;DHT22;4064;48.132;11.366;2023-02-16T00:34:51;-1.90;99.90
8043;DHT22;4064;48.132;11.366;2023-02-16T00:37:17;-1.90;99.90
8043;DHT22;4064;48.132;11.366;2023-02-16T00:39:44;-1.80;99.90
8043;DHT22;4064;48.132;11.366;2023-02-16T00:42:19;-1.90;99.90
8043;DHT22;4064;48.132;11.366;2023-02-16T00:44:51;-1.80;99.90
8043;DHT22;4064;48.132;11.366;2023-02-16T00:47:22;-1.80;99.90
8043;DHT22;4064;48.132;11.366;2023-02-16T00:49:52;-1.80;99.90
8043;DHT22;4064;48.132;11.366;2023-02-16T00:54:57;-1.80;99.90
8043;DHT22;4064;48.132;11.366;2023-02-16T00:57:23;-1.80;99.90
8043;DHT22;4064;48.132;11.366;2023-02-16T00:59:59;-1.80;99.90
8043;DHT22;4064;48.132;11.366;2023-02-16T01:02:26;-1.80;99.90
8043;DHT22;4064;48.132;11.366;2023-02-16T01:04:52;-1.90;99.90
8043;DHT22;4064;48.132;11.366;2023-02-16T01:07:19;-1.90;99.90
8043;DHT22;4064;48.132;11.366;2023-02-16T01:10:04;-1.90;99.90
8043;DHT22;4064;48.132;11.366;2023-02-16T01:12:48;-2.00;99.90
8043;DHT22;4064;48.132;11.366;2023-02-16T01:15:17;-2.00;99.90
8043;DHT22;4064;48.132;11.366;2023-02-16T01:17:43;-2.00;99.90
8043;DHT22;4064;48.132;11.366;2023-02-16T01:20:16;-2.00;99.90
8043;DHT22;4064;48.132;11.366;2023-02-16T01:22:42;-2.00;99.90
8043;DHT22;4064;48.132;11.366;2023-02-16T01:25:08;-2.00;99.90
8043;DHT22;4064;48.132;11.366;2023-02-16T01:27:36;-2.10;99.90
8043;DHT22;4064;48.132;11.366;2023-02-16T01:30:06;-2.20;99.90
8043;DHT22;4064;48.132;11.366;2023-02-16T01:32:32;-2.10;99.90
8043;DHT22;4064;48.132;11.366;2023-02-16T01:34:58;-2.20;99.90
8043;DHT22;4064;48.132;11.366;2023-02-16T01:37:24;-2.20;99.90
8043;DHT22;4064;48.132;11.366;2023-02-16T01:39:50;-2.20;99.90
8043;DHT22;4064;48.132;11.366;2023-02-16T01:42:36;-2.20;99.90
8043;DHT22;4064;48.132;11.366;2023-02-16T01:45:17;-2.10;99.90
8043;DHT22;4064;48.132;11.366;2023-02-16T01:47:55;-2.10;99.90
8043;DHT22;4064;48.132;11.366;2023-02-16T01:50:26;-2.10;99.90
8043;DHT22;4064;48.132;11.366;2023-02-16T01:52:54;-2.10;99.90
8043;DHT22;4064;48.132;11.366;2023-02-16T01:55:23;-2.20;99.90
8043;DHT22;4064;48.132;11.366;2023-02-16T01:57:59;-2.10;99.90
8043;DHT22;4064;48.132;11.366;2023-02-16T02:03:32;-2.10;99.90
8043;DHT22;4064;48.132;11.366;2023-02-16T02:06:30;-2.20;99.90
8043;DHT22;4064;48.132;11.366;2023-02-16T02:09:21;-2.20;99.90
8043;DHT22;4064;48.132;11.366;2023-02-16T02:11:59;-2.30;99.90
8043;DHT22;4064;48.132;11.366;2023-02-16T02:14:32;-2.20;99.90
8043;DHT22;4064;48.132;11.366;2023-02-16T02:17:06;-2.20;99.90
8043;DHT22;4064;48.132;11.366;2023-02-16T02:20:03;-2.20;99.90
8043;DHT22;4064;48.132;11.366;2023-02-16T02:23:13;-2.20;99.90
8043;DHT22;4064;48.132;11.366;2023-02-16T02:37:55;-2.40;99.90
8043;DHT22;4064;48.132;11.366;2023-02-16T02:40:58;-2.40;99.90
8043;DHT22;4064;48.132;11.366;2023-02-16T02:43:40;-2.40;99.90
8043;DHT22;4064;48.132;11.366;2023-02-16T02:46:11;-2.40;99.90
8043;DHT22;4064;48.132;11.366;2023-02-16T02:48:39;-2.40;99.90
8043;DHT22;4064;48.132;11.366;2023-02-16T02:54:00;-2.30;99.90
8043;DHT22;4064;48.132;11.366;2023-02-16T02:59:36;-2.30;99.90
8043;DHT22;4064;48.132;11.366;2023-02-16T03:02:23;-2.30;99.90
8043;DHT22;4064;48.132;11.366;2023-02-16T03:04:51;-2.40;99.90
8043;DHT22;4064;48.132;11.366;2023-02-16T03:07:20;-2.40;99.90
8043;DHT22;4064;48.132;11.366;2023-02-16T03:09:47;-2.40;99.90
8043;DHT22;4064;48.132;11.366;2023-02-16T03:12:33;-2.30;99.90
8043;DHT22;4064;48.132;11.366;2023-02-16T03:15:12;-2.30;99.90
8043;DHT22;4064;48.132;11.366;2023-02-16T03:17:39;-2.30;99.90
8043;DHT22;4064;48.132;11.366;2023-02-16T03:20:25;-2.20;99.90
8043;DHT22;4064;48.132;11.366;2023-02-16T03:23:10;-2.20;99.90
8043;DHT22;4064;48.132;11.366;2023-02-16T03:25:55;-2.20;99.90
8043;DHT22;4064;48.132;11.366;2023-02-16T03:28:41;-2.20;99.90
8043;DHT22;4064;48.132;11.366;2023-02-16T03:31:33;-2.20;99.90
8043;DHT22;4064;48.132;11.366;2023-02-16T03:34:00;-2.20;99.90
8043;DHT22;4064;48.132;11.366;2023-02-16T03:36:31;-2.20;99.90
8043;DHT22;4064;48.132;11.366;2023-02-16T03:38:58;-2.20;99.90
8043;DHT22;4064;48.132;11.366;2023-02-16T03:41:24;-2.20;99.90
8043;DHT22;4064;48.132;11.366;2023-02-16T03:43:50;-2.30;99.90
8043;DHT22;4064;48.132;11.366;2023-02-16T03:46:16;-2.30;99.90
8043;DHT22;4064;48.132;11.366;2023-02-16T03:48:42;-2.30;99.90
8043;DHT22;4064;48.132;11.366;2023-02-16T03:51:08;-2.30;99.90
8043;DHT22;4064;48.132;11.366;2023-02-16T03:53:34;-2.40;99.90
8043;DHT22;4064;48.132;11.366;2023-02-16T03:55:59;-2.30;99.90
8043;DHT22;4064;48.132;11.366;2023-02-16T03:58:25;-2.30;99.90
8043;DHT22;4064;48.132;11.366;2023-02-16T04:00:51;-2.30;99.90
8043;DHT22;4064;48.132;11.366;2023-02-16T04:03:18;-2.30;99.90
8043;DHT22;4064;48.132;11.366;2023-02-16T04:05:43;-2.40;99.90
8043;DHT22;4064;48.132;11.366;2023-02-16T04:08:10;-2.40;99.90
8043;DHT22;4064;48.132;11.366;2023-02-16T04:10:37;-2.40;99.90
8043;DHT22;4064;48.132;11.366;2023-02-16T04:13:03;-2.40;99.90
8043;DHT22;4064;48.132;11.366;2023-02-16T04:15:29;-2.40;99.90
8043;DHT22;4064;48.132;11.366;2023-02-16T04:17:56;-2.40;99.90
8043;DHT22;4064;48.132;11.366;2023-02-16T04:20:24;-2.40;99.90
8043;DHT22;4064;48.132;11.366;2023-02-16T04:22:50;-2.50;99.90
8043;DHT22;4064;48.132;11.366;2023-02-16T04:25:17;-2.50;99.90
8043;DHT22;4064;48.132;11.366;2023-02-16T04:27:43;-2.50;99.90
8043;DHT22;4064;48.132;11.366;2023-02-16T04:30:15;-2.50;99.90
8043;DHT22;4064;48.132;11.366;2023-02-16T04:32:42;-2.60;99.90
8043;DHT22;4064;48.132;11.366;2023-02-16T04:35:08;-2.50;99.90
8043;DHT22;4064;48.132;11.366;2023-02-16T04:37:34;-2.50;99.90
8043;DHT22;4064;48.132;11.366;2023-02-16T04:40:01;-2.60;99.90
8043;DHT22;4064;48.132;11.366;2023-02-16T04:42:27;-2.60;99.90
8043;DHT22;4064;48.132;11.366;2023-02-16T04:45:13;-2.50;99.90
8043;DHT22;4064;48.132;11.366;2023-02-16T04:47:39;-2.50;99.90
8043;DHT22;4064;48.132;11.366;2023-02-16T04:50:08;-2.40;99.90
8043;DHT22;4064;48.132;11.366;2023-02-16T04:52:34;-2.30;99.90
8043;DHT22;4064;48.132;11.366;2023-02-16T04:55:01;-2.30;99.90
8043;DHT22;4064;48.132;11.366;2023-02-16T04:57:26;-2.40;99.90
8043;DHT22;4064;48.132;11.366;2023-02-16T04:59:52;-2.40;99.90
8043;DHT22;4064;48.132;11.366;2023-02-16T05:02:18;-2.40;99.90
8043;DHT22;4064;48.132;11.366;2023-02-16T05:04:43;-2.40;99.90
8043;DHT22;4064;48.132;11.366;2023-02-16T05:07:09;-2.50;99.90
8043;DHT22;4064;48.132;11.366;2023-02-16T05:09:35;-2.40;99.90
8043;DHT22;4064;48.132;11.366;2023-02-16T05:12:00;-2.40;99.90
8043;DHT22;4064;48.132;11.366;2023-02-16T05:14:45;-2.40;99.90
8043;DHT22;4064;48.132;11.366;2023-02-16T05:19:40;-2.40;99.90
8043;DHT22;4064;48.132;11.366;2023-02-16T05:22:07;-2.50;99.90
8043;DHT22;4064;48.132;11.366;2023-02-16T05:24:33;-2.40;99.90
8043;DHT22;4064;48.132;11.366;2023-02-16T05:27:00;-2.40;99.90
8043;DHT22;4064;48.132;11.366;2023-02-16T05:29:26;-2.40;99.90
8043;DHT22;4064;48.132;11.366;2023-02-16T05:31:52;-2.50;99.90
8043;DHT22;4064;48.132;11.366;2023-02-16T05:34:18;-2.40;99.90
8043;DHT22;4064;48.132;11.366;2023-02-16T05:36:43;-2.40;99.90
8043;DHT22;4064;48.132;11.366;2023-02-16T05:39:09;-2.40;99.90
8043;DHT22;4064;48.132;11.366;2023-02-16T05:41:35;-2.40;99.90
8043;DHT22;4064;48.132;11.366;2023-02-16T05:44:02;-2.30;99.90
8043;DHT22;4064;48.132;11.366;2023-02-16T05:46:29;-2.30;99.90
8043;DHT22;4064;48.132;11.366;2023-02-16T05:48:57;-2.30;99.90
8043;DHT22;4064;48.132;11.366;2023-02-16T05:51:23;-2.30;99.90
8043;DHT22;4064;48.132;11.366;2023-02-16T05:53:49;-2.30;99.90
8043;DHT22;4064;48.132;11.366;2023-02-16T05:56:16;-2.30;99.90
8043;DHT22;4064;48.132;11.366;2023-02-16T05:58:42;-2.30;99.90
8043;DHT22;4064;48.132;11.366;2023-02-16T06:01:08;-2.30;99.90
8043;DHT22;4064;48.132;11.366;2023-02-16T06:03:33;-2.30;99.90
8043;DHT22;4064;48.132;11.366;2023-02-16T06:06:01;-2.30;99.90
8043;DHT22;4064;48.132;11.366;2023-02-16T06:08:27;-2.30;99.90
8043;DHT22;4064;48.132;11.366;2023-02-16T06:10:53;-2.30;99.90
8043;DHT22;4064;48.132;11.366;2023-02-16T06:13:20;-2.20;99.90
8043;DHT22;4064;48.132;11.366;2023-02-16T06:15:49;-2.20;99.90
8043;DHT22;4064;48.132;11.366;2023-02-16T06:18:15;-2.20;99.90
8043;DHT22;4064;48.132;11.366;2023-02-16T06:20:41;-2.20;99.90
8043;DHT22;4064;48.132;11.366;2023-02-16T06:23:07;-2.10;99.90
8043;DHT22;4064;48.132;11.366;2023-02-16T06:25:34;-2.10;99.90
8043;DHT22;4064;48.132;11.366;2023-02-16T06:28:00;-2.00;99.90
8043;DHT22;4064;48.132;11.366;2023-02-16T06:30:26;-2.00;99.90
8043;DHT22;4064;48.132;11.366;2023-02-16T06:32:52;-2.00;99.90
8043;DHT22;4064;48.132;11.366;2023-02-16T06:35:18;-1.90;99.90
8043;DHT22;4064;48.132;11.366;2023-02-16T06:37:44;-1.80;99.90
8043;DHT22;4064;48.132;11.366;2023-02-16T06:40:10;-1.80;99.90
8043;DHT22;4064;48.132;11.366;2023-02-16T06:42:39;-1.70;99.90
8043;DHT22;4064;48.132;11.366;2023-02-16T06:45:05;-1.60;99.90
8043;DHT22;4064;48.132;11.366;2023-02-16T06:47:31;-1.50;99.90
8043;DHT22;4064;48.132;11.366;2023-02-16T06:49:57;-1.40;99.90
8043;DHT22;4064;48.132;11.366;2023-02-16T06:52:23;-1.30;99.90
8043;DHT22;4064;48.132;11.366;2023-02-16T06:54:48;-1.30;99.90
8043;DHT22;4064;48.132;11.366;2023-02-16T06:57:14;-1.20;99.90
8043;DHT22;4064;48.132;11.366;2023-02-16T06:59:40;-1.10;99.90
8043;DHT22;4064;48.132;11.366;2023-02-16T07:02:06;-1.00;99.90
8043;DHT22;4064;48.132;11.366;2023-02-16T07:04:31;-0.90;99.90
8043;DHT22;4064;48.132;11.366;2023-02-16T07:06:57;-0.80;99.90
8043;DHT22;4064;48.132;11.366;2023-02-16T07:09:23;-0.70;99.90
8043;DHT22;4064;48.132;11.366;2023-02-16T07:11:48;-0.60;99.90
8043;DHT22;4064;48.132;11.366;2023-02-16T07:14:14;-0.50;99.90
8043;DHT22;4064;48.132;11.366;2023-02-16T07:16:40;-0.40;99.90
8043;DHT22;4064;48.132;11.366;2023-02-16T07:19:06;-0.20;99.90
8043;DHT22;4064;48.132;11.366;2023-02-16T07:21:32;-0.10;99.90
8043;DHT22;4064;48.132;11.366;2023-02-16T07:23:58;0.00;99.90
8043;DHT22;4064;48.132;11.366;2023-02-16T07:26:24;0.20;99.90
8043;DHT22;4064;48.132;11.366;2023-02-16T07:28:49;0.30;99.90
8043;DHT22;4064;48.132;11.366;2023-02-16T07:31:15;0.50;99.90
8043;DHT22;4064;48.132;11.366;2023-02-16T07:33:42;0.60;99.90
8043;DHT22;4064;48.132;11.366;2023-02-16T07:36:09;0.80;99.90
8043;DHT22;4064;48.132;11.366;2023-02-16T07:38:36;0.90;99.90
8043;DHT22;4064;48.132;11.366;2023-02-16T07:41:02;1.00;99.90
8043;DHT22;4064;48.132;11.366;2023-02-16T07:43:27;1.20;99.90
8043;DHT22;4064;48.132;11.366;2023-02-16T07:45:53;1.40;99.90
8043;DHT22;4064;48.132;11.366;2023-02-16T07:48:19;1.50;99.90
8043;DHT22;4064;48.132;11.366;2023-02-16T07:50:45;1.70;99.90
8043;DHT22;4064;48.132;11.366;2023-02-16T07:53:11;1.80;99.90
8043;DHT22;4064;48.132;11.366;2023-02-16T07:55:41;2.00;99.90
8043;DHT22;4064;48.132;11.366;2023-02-16T07:58:07;2.10;99.90
8043;DHT22;4064;48.132;11.366;2023-02-16T08:00:34;2.30;99.90
8043;DHT22;4064;48.132;11.366;2023-02-16T08:03:00;2.40;99.90
8043;DHT22;4064;48.132;11.366;2023-02-16T08:05:26;2.70;99.90
8043;DHT22;4064;48.132;11.366;2023-02-16T08:07:51;2.80;99.90
8043;DHT22;4064;48.132;11.366;2023-02-16T08:10:17;3.10;99.90
8043;DHT22;4064;48.132;11.366;2023-02-16T08:12:43;3.40;99.90
8043;DHT22;4064;48.132;11.366;2023-02-16T08:15:09;3.60;99.90
8043;DHT22;4064;48.132;11.366;2023-02-16T08:17:36;4.00;99.90
8043;DHT22;4064;48.132;11.366;2023-02-16T08:20:05;4.40;99.90
8043;DHT22;4064;48.132;11.366;2023-02-16T08:22:32;5.10;99.90
8043;DHT22;4064;48.132;11.366;2023-02-16T08:24:57;5.60;99.90
8043;DHT22;4064;48.132;11.366;2023-02-16T08:27:24;6.00;99.90
8043;DHT22;4064;48.132;11.366;2023-02-16T08:29:52;6.60;99.90
8043;DHT22;4064;48.132;11.366;2023-02-16T08:32:18;7.00;99.90
8043;DHT22;4064;48.132;11.366;2023-02-16T08:34:44;7.30;99.90
8043;DHT22;4064;48.132;11.366;2023-02-16T08:37:12;7.40;99.90
8043;DHT22;4064;48.132;11.366;2023-02-16T08:39:38;7.40;99.90
8043;DHT22;4064;48.132;11.366;2023-02-16T08:42:04;7.30;99.90
8043;DHT22;4064;48.132;11.366;2023-02-16T08:44:30;7.30;99.90
8043;DHT22;4064;48.132;11.366;2023-02-16T08:46:58;7.40;99.90
8043;DHT22;4064;48.132;11.366;2023-02-16T08:49:24;7.40;99.90
8043;DHT22;4064;48.132;11.366;2023-02-16T08:51:55;7.30;99.90
8043;DHT22;4064;48.132;11.366;2023-02-16T08:54:24;7.50;99.90
8043;DHT22;4064;48.132;11.366;2023-02-16T08:56:51;7.70;99.90
8043;DHT22;4064;48.132;11.366;2023-02-16T08:59:19;7.90;99.90
8043;DHT22;4064;48.132;11.366;2023-02-16T09:01:46;8.00;99.90
8043;DHT22;4064;48.132;11.366;2023-02-16T09:04:12;8.10;99.90
8043;DHT22;4064;48.132;11.366;2023-02-16T09:06:40;8.30;99.90
8043;DHT22;4064;48.132;11.366;2023-02-16T09:09:07;8.70;99.90
8043;DHT22;4064;48.132;11.366;2023-02-16T09:11:34;9.50;99.90
8043;DHT22;4064;48.132;11.366;2023-02-16T09:14:00;10.40;98.70
8043;DHT22;4064;48.132;11.366;2023-02-16T09:16:27;10.80;95.70
8043;DHT22;4064;48.132;11.366;2023-02-16T09:18:53;11.40;92.90
8043;DHT22;4064;48.132;11.366;2023-02-16T09:21:22;11.70;90.20
8043;DHT22;4064;48.132;11.366;2023-02-16T09:23:51;11.60;88.00
8043;DHT22;4064;48.132;11.366;2023-02-16T09:26:19;11.90;88.30
8043;DHT22;4064;48.132;11.366;2023-02-16T09:28:46;12.50;85.10
8043;DHT22;4064;48.132;11.366;2023-02-16T09:31:16;12.90;80.20
8043;DHT22;4064;48.132;11.366;2023-02-16T09:33:44;12.80;77.90
8043;DHT22;4064;48.132;11.366;2023-02-16T09:36:12;12.80;76.90
8043;DHT22;4064;48.132;11.366;2023-02-16T09:38:38;12.60;74.80
8043;DHT22;4064;48.132;11.366;2023-02-16T09:46:35;12.50;74.70
8043;DHT22;4064;48.132;11.366;2023-02-16T09:49:02;12.90;73.80
8043;DHT22;4064;48.132;11.366;2023-02-16T09:51:35;12.90;71.90
8043;DHT22;4064;48.132;11.366;2023-02-16T09:56:55;14.00;69.80
8043;DHT22;4064;48.132;11.366;2023-02-16T09:59:33;14.00;68.00
8043;DHT22;4064;48.132;11.366;2023-02-16T10:02:15;13.90;67.60
8043;DHT22;4064;48.132;11.366;2023-02-16T10:05:11;13.60;67.10
8043;DHT22;4064;48.132;11.366;2023-02-16T10:08:08;13.20;66.10
8043;DHT22;4064;48.132;11.366;2023-02-16T10:15:58;12.60;66.90
8043;DHT22;4064;48.132;11.366;2023-02-16T10:18:30;12.50;66.80
8043;DHT22;4064;48.132;11.366;2023-02-16T10:21:01;12.60;66.90
8043;DHT22;4064;48.132;11.366;2023-02-16T10:23:45;12.80;66.50
8043;DHT22;4064;48.132;11.366;2023-02-16T10:28:53;13.50;64.60
8043;DHT22;4064;48.132;11.366;2023-02-16T10:31:39;13.90;63.90
8043;DHT22;4064;48.132;11.366;2023-02-16T10:43:12;14.70;59.70
8043;DHT22;4064;48.132;11.366;2023-02-16T10:45:50;14.70;59.50
8043;DHT22;4064;48.132;11.366;2023-02-16T10:48:16;14.70;59.90
8043;DHT22;4064;48.132;11.366;2023-02-16T10:50:47;14.60;59.60
8043;DHT22;4064;48.132;11.366;2023-02-16T10:53:22;14.30;59.50
8043;DHT22;4064;48.132;11.366;2023-02-16T10:55:56;14.40;60.50
8043;DHT22;4064;48.132;11.366;2023-02-16T10:58:25;14.40;60.20
8043;DHT22;4064;48.132;11.366;2023-02-16T11:03:30;14.40;59.40
8043;DHT22;4064;48.132;11.366;2023-02-16T11:06:16;14.50;58.30
8043;DHT22;4064;48.132;11.366;2023-02-16T11:08:56;14.60;57.60
8043;DHT22;4064;48.132;11.366;2023-02-16T11:11:27;14.60;58.50
8043;DHT22;4064;48.132;11.366;2023-02-16T11:14:02;14.60;58.60
8043;DHT22;4064;48.132;11.366;2023-02-16T11:16:29;14.70;58.80
8043;DHT22;4064;48.132;11.366;2023-02-16T11:19:05;14.80;58.10
8043;DHT22;4064;48.132;11.366;2023-02-16T11:21:52;14.50;57.30
8043;DHT22;4064;48.132;11.366;2023-02-16T11:24:32;14.80;58.00
8043;DHT22;4064;48.132;11.366;2023-02-16T11:27:02;14.60;56.30
8043;DHT22;4064;48.132;11.366;2023-02-16T11:29:29;14.70;56.50
8043;DHT22;4064;48.132;11.366;2023-02-16T11:31:56;14.90;56.20
8043;DHT22;4064;48.132;11.366;2023-02-16T11:34:32;15.00;54.90
8043;DHT22;4064;48.132;11.366;2023-02-16T11:37:02;14.90;53.90
8043;DHT22;4064;48.132;11.366;2023-02-16T11:39:38;14.90;53.50
8043;DHT22;4064;48.132;11.366;2023-02-16T11:42:07;14.70;53.60
8043;DHT22;4064;48.132;11.366;2023-02-16T11:44:47;14.70;52.10
8043;DHT22;4064;48.132;11.366;2023-02-16T11:47:25;14.70;53.20
8043;DHT22;4064;48.132;11.366;2023-02-16T11:52:48;15.20;52.80
8043;DHT22;4064;48.132;11.366;2023-02-16T11:55:32;15.20;52.80
8043;DHT22;4064;48.132;11.366;2023-02-16T11:58:22;15.20;51.50
8043;DHT22;4064;48.132;11.366;2023-02-16T12:06:03;15.20;50.50
8043;DHT22;4064;48.132;11.366;2023-02-16T12:11:09;15.40;50.40
8043;DHT22;4064;48.132;11.366;2023-02-16T12:13:56;15.50;51.00
8043;DHT22;4064;48.132;11.366;2023-02-16T12:19:32;15.90;51.10
8043;DHT22;4064;48.132;11.366;2023-02-16T12:27:31;16.00;47.60
8043;DHT22;4064;48.132;11.366;2023-02-16T12:35:58;16.00;47.90
8043;DHT22;4064;48.132;11.366;2023-02-16T12:38:47;16.20;48.30
8043;DHT22;4064;48.132;11.366;2023-02-16T12:44:47;15.90;46.10
8043;DHT22;4064;48.132;11.366;2023-02-16T12:47:23;15.90;47.50
8043;DHT22;4064;48.132;11.366;2023-02-16T12:49:55;15.90;45.50
8043;DHT22;4064;48.132;11.366;2023-02-16T12:52:36;15.90;47.00
8043;DHT22;4064;48.132;11.366;2023-02-16T13:00:43;15.90;45.50
8043;DHT22;4064;48.132;11.366;2023-02-16T13:06:23;16.20;47.00
8043;DHT22;4064;48.132;11.366;2023-02-16T13:14:30;16.80;44.70
8043;DHT22;4064;48.132;11.366;2023-02-16T13:17:00;16.70;44.00
8043;DHT22;4064;48.132;11.366;2023-02-16T13:19:27;16.70;44.30
8043;DHT22;4064;48.132;11.366;2023-02-16T13:27:06;17.20;43.60
8043;DHT22;4064;48.132;11.366;2023-02-16T13:35:06;17.20;43.40
8043;DHT22;4064;48.132;11.366;2023-02-16T13:40:35;16.90;44.10
8043;DHT22;4064;48.132;11.366;2023-02-16T13:45:44;16.40;43.40
8043;DHT22;4064;48.132;11.366;2023-02-16T13:48:34;16.10;43.10
8043;DHT22;4064;48.132;11.366;2023-02-16T13:51:05;15.80;42.80
8043;DHT22;4064;48.132;11.366;2023-02-16T13:53:39;15.40;43.10
8043;DHT22;4064;48.132;11.366;2023-02-16T13:58:39;15.00;43.30
8043;DHT22;4064;48.132;11.366;2023-02-16T14:03:52;14.80;43.30
8043;DHT22;4064;48.132;11.366;2023-02-16T14:06:33;14.70;44.00
8043;DHT22;4064;48.132;11.366;2023-02-16T14:14:59;14.20;44.20
8043;DHT22;4064;48.132;11.366;2023-02-16T14:17:27;14.10;44.10
8043;DHT22;4064;48.132;11.366;2023-02-16T14:20:23;14.00;44.80
8043;DHT22;4064;48.132;11.366;2023-02-16T14:22:54;13.80;44.00
8043;DHT22;4064;48.132;11.366;2023-02-16T14:25:32;13.80;44.80
8043;DHT22;4064;48.132;11.366;2023-02-16T14:30:50;13.80;45.00
8043;DHT22;4064;48.132;11.366;2023-02-16T14:36:23;14.00;45.00
8043;DHT22;4064;48.132;11.366;2023-02-16T14:38:54;14.00;43.80
8043;DHT22;4064;48.132;11.366;2023-02-16T14:47:10;14.20;44.10
8043;DHT22;4064;48.132;11.366;2023-02-16T14:55:37;14.40;45.00
8043;DHT22;4064;48.132;11.366;2023-02-16T15:03:54;14.40;44.90
8043;DHT22;4064;48.132;11.366;2023-02-16T15:06:31;14.30;44.20
8043;DHT22;4064;48.132;11.366;2023-02-16T15:09:00;14.20;44.10
8043;DHT22;4064;48.132;11.366;2023-02-16T15:11:49;13.90;44.80
8043;DHT22;4064;48.132;11.366;2023-02-16T15:19:50;13.00;45.10
8043;DHT22;4064;48.132;11.366;2023-02-16T15:22:22;12.80;45.10
8043;DHT22;4064;48.132;11.366;2023-02-16T15:25:04;12.60;45.50
8043;DHT22;4064;48.132;11.366;2023-02-16T15:27:32;12.40;45.80
8043;DHT22;4064;48.132;11.366;2023-02-16T15:30:21;12.20;45.80
8043;DHT22;4064;48.132;11.366;2023-02-16T15:32:57;12.00;46.60
8043;DHT22;4064;48.132;11.366;2023-02-16T15:35:35;11.90;47.30
8043;DHT22;4064;48.132;11.366;2023-02-16T15:40:29;11.60;47.70
8043;DHT22;4064;48.132;11.366;2023-02-16T15:43:15;11.40;48.10
8043;DHT22;4064;48.132;11.366;2023-02-16T15:45:47;11.30;48.30
8043;DHT22;4064;48.132;11.366;2023-02-16T15:48:25;11.20;48.30
8043;DHT22;4064;48.132;11.366;2023-02-16T15:51:00;11.10;48.70
8043;DHT22;4064;48.132;11.366;2023-02-16T15:53:33;11.00;48.90
8043;DHT22;4064;48.132;11.366;2023-02-16T15:56:02;10.90;49.20
8043;DHT22;4064;48.132;11.366;2023-02-16T15:58:30;10.80;49.30
8043;DHT22;4064;48.132;11.366;2023-02-16T16:00:56;10.70;49.40
8043;DHT22;4064;48.132;11.366;2023-02-16T16:03:22;10.50;50.10
8043;DHT22;4064;48.132;11.366;2023-02-16T16:06:03;10.40;50.30
8043;DHT22;4064;48.132;11.366;2023-02-16T16:08:33;10.30;50.90
8043;DHT22;4064;48.132;11.366;2023-02-16T16:10:59;10.20;51.10
8043;DHT22;4064;48.132;11.366;2023-02-16T16:13:27;10.00;51.40
8043;DHT22;4064;48.132;11.366;2023-02-16T16:15:56;9.90;52.70
8043;DHT22;4064;48.132;11.366;2023-02-16T16:18:36;9.70;52.70
8043;DHT22;4064;48.132;11.366;2023-02-16T16:21:14;9.60;52.80
8043;DHT22;4064;48.132;11.366;2023-02-16T16:24:00;9.50;52.90
8043;DHT22;4064;48.132;11.366;2023-02-16T16:26:28;9.30;53.40
8043;DHT22;4064;48.132;11.366;2023-02-16T16:28:55;9.20;53.40
8043;DHT22;4064;48.132;11.366;2023-02-16T16:34:04;9.00;54.20
8043;DHT22;4064;48.132;11.366;2023-02-16T16:36:54;8.90;54.50
8043;DHT22;4064;48.132;11.366;2023-02-16T16:39:26;8.80;53.60
8043;DHT22;4064;48.132;11.366;2023-02-16T16:44:37;8.70;53.30
8043;DHT22;4064;48.132;11.366;2023-02-16T16:47:28;8.60;53.20
8043;DHT22;4064;48.132;11.366;2023-02-16T16:49:58;8.60;53.00
8043;DHT22;4064;48.132;11.366;2023-02-16T16:52:37;8.50;53.50
8043;DHT22;4064;48.132;11.366;2023-02-16T16:55:33;8.50;53.20
8043;DHT22;4064;48.132;11.366;2023-02-16T16:58:03;8.40;53.10
8043;DHT22;4064;48.132;11.366;2023-02-16T17:00:33;8.40;52.60
8043;DHT22;4064;48.132;11.366;2023-02-16T17:03:01;8.40;52.10
8043;DHT22;4064;48.132;11.366;2023-02-16T17:05:27;8.30;51.70
8043;DHT22;4064;48.132;11.366;2023-02-16T17:07:53;8.30;52.10
8043;DHT22;4064;48.132;11.366;2023-02-16T17:10:20;8.20;51.90
8043;DHT22;4064;48.132;11.366;2023-02-16T17:12:49;8.20;52.10
8043;DHT22;4064;48.132;11.366;2023-02-16T17:15:28;8.20;52.10
8043;DHT22;4064;48.132;11.366;2023-02-16T17:17:55;8.10;52.00
8043;DHT22;4064;48.132;11.366;2023-02-16T17:20:22;8.10;51.80
8043;DHT22;4064;48.132;11.366;2023-02-16T17:22:48;8.10;51.80
8043;DHT22;4064;48.132;11.366;2023-02-16T17:25:14;8.00;52.40
8043;DHT22;4064;48.132;11.366;2023-02-16T17:27:40;8.00;52.10
8043;DHT22;4064;48.132;11.366;2023-02-16T17:30:06;7.90;52.50
8043;DHT22;4064;48.132;11.366;2023-02-16T17:32:31;7.90;52.60
8043;DHT22;4064;48.132;11.366;2023-02-16T17:34:57;7.90;52.70
8043;DHT22;4064;48.132;11.366;2023-02-16T17:37:23;7.90;52.50
8043;DHT22;4064;48.132;11.366;2023-02-16T17:39:49;7.90;52.30
8043;DHT22;4064;48.132;11.366;2023-02-16T17:42:15;7.90;52.60
8043;DHT22;4064;48.132;11.366;2023-02-16T17:44:41;7.90;52.50
8043;DHT22;4064;48.132;11.366;2023-02-16T17:47:13;7.90;52.60
8043;DHT22;4064;48.132;11.366;2023-02-16T17:49:39;7.80;52.80
8043;DHT22;4064;48.132;11.366;2023-02-16T17:52:14;7.90;53.10
8043;DHT22;4064;48.132;11.366;2023-02-16T17:54:40;7.90;52.90
8043;DHT22;4064;48.132;11.366;2023-02-16T17:57:05;7.90;53.00
8043;DHT22;4064;48.132;11.366;2023-02-16T17:59:31;8.00;52.80
8043;DHT22;4064;48.132;11.366;2023-02-16T18:01:58;8.00;53.10
8043;DHT22;4064;48.132;11.366;2023-02-16T18:04:24;8.10;53.10
8043;DHT22;4064;48.132;11.366;2023-02-16T18:06:49;8.10;52.90
8043;DHT22;4064;48.132;11.366;2023-02-16T18:09:16;8.10;52.80
8043;DHT22;4064;48.132;11.366;2023-02-16T18:11:49;8.10;52.80
8043;DHT22;4064;48.132;11.366;2023-02-16T18:14:15;8.20;52.90
8043;DHT22;4064;48.132;11.366;2023-02-16T18:16:41;8.20;53.00
8043;DHT22;4064;48.132;11.366;2023-02-16T18:19:08;8.20;53.10
8043;DHT22;4064;48.132;11.366;2023-02-16T18:21:35;8.20;53.00
8043;DHT22;4064;48.132;11.366;2023-02-16T18:24:00;8.20;53.20
8043;DHT22;4064;48.132;11.366;2023-02-16T18:26:26;8.20;53.20
8043;DHT22;4064;48.132;11.366;2023-02-16T18:28:57;8.10;53.40
8043;DHT22;4064;48.132;11.366;2023-02-16T18:31:23;8.10;53.50
8043;DHT22;4064;48.132;11.366;2023-02-16T18:33:49;8.10;53.70
8043;DHT22;4064;48.132;11.366;2023-02-16T18:36:15;8.10;53.90
8043;DHT22;4064;48.132;11.366;2023-02-16T18:38:41;8.10;53.90
8043;DHT22;4064;48.132;11.366;2023-02-16T18:41:06;8.10;54.20
8043;DHT22;4064;48.132;11.366;2023-02-16T18:43:33;8.10;54.40
8043;DHT22;4064;48.132;11.366;2023-02-16T18:46:04;8.10;54.80
8043;DHT22;4064;48.132;11.366;2023-02-16T18:48:30;8.10;55.20
8043;DHT22;4064;48.132;11.366;2023-02-16T18:50:56;8.00;55.50
8043;DHT22;4064;48.132;11.366;2023-02-16T18:53:22;8.00;55.70